Flight Track Log - Related Links

Times and Time Zones

All times are in EDT time to prevent confusion due to time zone crossing. See the SWA2353 flight status page for this flight to view local times or setup timezone preferences in your user account.

Time Position Orientation Groundspeed Altitude Reporting Facility
EDT Latitude Longitude Course Direction KTS MPH feet Rate Location/Type
Wed 09:35:56 PM 41.7178 -87.7114 187° South 255 293 5,800  Level Chicago Center
Wed 09:36:58 PM 41.6581 -87.7728 218° Southwest 269 310 9,200 3,048 Climbing Chicago Center
Wed 09:38:00 PM 41.5922 -87.8403 217° Southwest 294 338 12,100 3,122 Climbing Chicago Center
Wed 09:39:01 PM 41.5153 -87.9192 218° Southwest 344 396 15,600 2,390 Climbing Chicago Center
Wed 09:40:03 PM 41.4364 -87.9997 217° Southwest 353 406 17,000 774 Climbing Chicago Center
Wed 09:41:05 PM 41.3428 -88.0519 203° Southwest 353 406 17,200 1,694 Climbing Chicago Center
Wed 09:42:07 PM 41.2436 -88.0850 194° South 365 420 20,500 2,878 Climbing Chicago Center
Wed 09:43:08 PM 41.1375 -88.0978 185° South 382 440 23,100 2,683 Climbing Chicago Center
Wed 09:44:10 PM 41.0117 -88.1125 185° South 382 440 26,000 1,403 Climbing Chicago Center
Wed 09:45:12 PM 40.9067 -88.1244 185° South 380 437 26,000  Level Chicago Center
Wed 09:46:13 PM 40.8028 -88.1417 187° South 379 436 26,000  Level Chicago Center
Wed 09:47:15 PM 40.7089 -88.2019 206° Southwest 376 433 26,000  Level Chicago Center
Wed 09:48:17 PM 40.6131 -88.2592 204° Southwest 377 434 26,000  Level Chicago Center
Wed 09:49:19 PM 40.5178 -88.3189 205° Southwest 380 437 26,000  Level Chicago Center
Wed 09:50:20 PM 40.4011 -88.3892 205° Southwest 386 444 26,000  Level Chicago Center
Wed 09:51:22 PM 40.3044 -88.4472 205° Southwest 384 442 26,000  Level Chicago Center
Wed 09:52:23 PM 40.2081 -88.5042 204° Southwest 383 441 26,000  Level Chicago Center
Wed 09:53:25 PM 40.1197 -88.5589 205° Southwest 383 441 26,000  Level Chicago Center
Wed 09:54:13 PM 40.0400 -88.6050 204° Southwest 383 441 26,000  Level Kansas City Center
Wed 09:55:14 PM 39.9431 -88.6628 205° Southwest 382 440 26,000  Level Kansas City Center
Wed 09:56:15 PM 39.8467 -88.7203 205° Southwest 380 437 26,000  Level Kansas City Center
Wed 09:57:16 PM 39.7308 -88.7897 205° Southwest 381 438 26,000  Level Kansas City Center
Wed 09:58:17 PM 39.6339 -88.8453 204° Southwest 380 437 26,000  Level Kansas City Center
Wed 09:59:19 PM 39.5386 -88.9025 205° Southwest 377 434 26,000  Level Kansas City Center
Wed 10:00:20 PM 39.4436 -88.9597 205° Southwest 377 434 26,000 -443 Level Kansas City Center
Wed 10:01:21 PM 39.3508 -89.0119 204° Southwest 375 432 25,100 -1,721 Descending Kansas City Center
Wed 10:02:22 PM 39.2558 -89.0683 205° Southwest 376 433 22,500 -2,508 Descending Kansas City Center
Wed 10:03:23 PM 39.1489 -89.1292 204° Southwest 376 433 20,000 -2,262 Descending Kansas City Center
Wed 10:04:24 PM 39.0822 -89.2167 226° Southwest 362 417 17,900 -2,213 Descending Kansas City Center
Wed 10:05:25 PM 39.0519 -89.3453 253° West 350 403 15,500 -2,262 Descending Kansas City Center
Wed 10:06:26 PM 39.0258 -89.4614 254° West 341 392 13,300 -1,574 Descending Kansas City Center
Wed 10:07:27 PM 39.0019 -89.5717 254° West 325 374 12,300 -1,377 Descending Kansas City Center
Wed 10:08:28 PM 38.9525 -89.6658 236° Southwest 319 367 10,500 -1,377 Descending Kansas City Center
Wed 10:09:29 PM 38.9039 -89.7533 234° Southwest 302 348 9,500 -1,230 Descending Kansas City Center
Wed 10:10:30 PM 38.8583 -89.8331 234° Southwest 283 326 8,000 -1,230 Descending Kansas City Center
Wed 10:11:31 PM 38.8142 -89.9114 234° Southwest 275 316 7,000 -1,377 Descending Kansas City Center
Wed 10:12:32 PM 38.7739 -89.9839 235° Southwest 260 299 5,200 -1,623 Descending Kansas City Center
Wed 10:13:33 PM 38.7303 -90.0600 234° Southwest 260 299 3,700 -1,082 Descending Kansas City Center
Wed 10:14:34 PM 38.6883 -90.1344 234° Southwest 260 299 3,000 -344 Descending Kansas City Center
Wed 10:15:35 PM 38.6683 -90.1983 248° West 234 269 3,000 -393 Level Kansas City Center
Wed 10:16:36 PM 38.6989 -90.2583 303° West 213 245 2,200 -885 Descending Kansas City Center
Wed 10:17:37 PM 38.7225 -90.3075 302° West 185 213 1,200 -738 Descending Kansas City Center
Wed 10:18:38 PM 38.7450 -90.3503 304° West 156 180 700 -492 Descending Kansas City Center
Wed 10:20:00 PM 38.7333 -90.3667 299° West  Level FlightAware Approximate
Wed 10:27:00 PM 38.7487 -90.3700 299° West  Level Estimated

Login

Don't have an account? Register now (free) for customized features, flight alerts, and more!